Time;durP1;ratioP1;P1;durP2;ratioP2;P2;SDS_P1;SDS_P2;PMS_P1;PMS_P2;Temp;Humidity;BMP_temperature;BMP_pressure;BME280_temperature;BME280_humidity;BME280_pressure;Samples;Min_cycle;Max_cycle;Signal;HPM_P1;HPM_P2
2021/04/27 00:00:09;;;;;;;11.38;4.82;;;;;;;;;;5070975;28;20131;-82
2021/04/27 00:02:35;;;;;;;8.48;4.72;;;;;;;;;;5065057;28;20033;-82
2021/04/27 00:05:02;;;;;;;10.98;4.22;;;;;;;;;;5067073;28;20041;-81
2021/04/27 00:07:28;;;;;;;10.63;5.13;;;;;;;;;;5059764;28;20048;-82
2021/04/27 00:09:54;;;;;;;13.23;4.88;;;;;;;;;;5055869;28;20480;-81
2021/04/27 00:12:21;;;;;;;14.98;5.35;;;;;;;;;;5059912;28;20055;-82
2021/04/27 00:14:47;;;;;;;10.13;4.30;;;;;;;;;;5072696;28;20795;-82
2021/04/27 00:17:13;;;;;;;10.82;5.20;;;;;;;;;;5078573;28;20123;-82
2021/04/27 00:19:39;;;;;;;12.07;4.63;;;;;;;;;;5062666;28;20040;-82
2021/04/27 00:22:06;;;;;;;11.77;5.32;;;;;;;;;;5075473;28;20424;-81
2021/04/27 00:24:33;;;;;;;9.63;4.97;;;;;;;;;;5060909;28;20048;-82
2021/04/27 00:27:00;;;;;;;10.50;4.13;;;;;;;;;;5071559;28;20051;-82
2021/04/27 00:29:26;;;;;;;8.32;4.10;;;;;;;;;;5073811;28;20048;-82
2021/04/27 00:31:53;;;;;;;11.30;4.53;;;;;;;;;;5070803;28;20089;-82
2021/04/27 00:34:19;;;;;;;9.45;4.28;;;;;;;;;;5064690;28;20052;-82
2021/04/27 00:36:45;;;;;;;11.13;4.95;;;;;;;;;;5060488;28;20111;-82
2021/04/27 00:39:11;;;;;;;11.85;5.32;;;;;;;;;;5059322;28;20045;-82
2021/04/27 00:41:38;;;;;;;9.70;5.57;;;;;;;;;;5056727;28;20068;-81
2021/04/27 00:44:05;;;;;;;9.05;5.00;;;;;;;;;;5061277;28;20044;-82
2021/04/27 00:46:31;;;;;;;12.73;5.30;;;;;;;;;;5067222;28;20438;-82
2021/04/27 00:48:57;;;;;;;10.55;4.80;;;;;;;;;;5078522;28;20044;-81
2021/04/27 00:51:23;;;;;;;11.48;5.40;;;;;;;;;;5079871;28;20043;-82
2021/04/27 00:53:51;;;;;;;12.40;5.50;;;;;;;;;;5072296;28;20033;-82
2021/04/27 00:56:19;;;;;;;11.93;5.80;;;;;;;;;;5065035;28;20048;-81
2021/04/27 00:58:45;;;;;;;10.18;5.47;;;;;;;;;;5071531;28;20092;-82
2021/04/27 01:01:12;;;;;;;17.90;6.03;;;;;;;;;;5068646;28;20506;-82
2021/04/27 01:03:39;;;;;;;10.75;5.90;;;;;;;;;;5066638;28;20041;-81
2021/04/27 01:06:06;;;;;;;17.38;5.43;;;;;;;;;;5069496;28;20075;-82
2021/04/27 01:08:37;;;;;;;12.63;5.38;;;;;;;;;;5058087;28;20048;-82
2021/04/27 01:11:15;;;;;;;11.63;5.03;;;;;;;;;;5059599;28;20182;-81
2021/04/27 01:13:49;;;;;;;10.68;5.55;;;;;;;;;;5063387;28;20040;-81
2021/04/27 01:16:15;;;;;;;12.38;5.95;;;;;;;;;;5073011;28;20081;-82
2021/04/27 01:18:43;;;;;;;17.23;7.40;;;;;;;;;;5069892;28;20087;-82
2021/04/27 01:21:10;;;;;;;11.00;5.88;;;;;;;;;;5075140;28;20060;-82
2021/04/27 01:23:41;;;;;;;15.40;5.47;;;;;;;;;;5064756;28;20043;-82
2021/04/27 01:26:13;;;;;;;14.07;6.05;;;;;;;;;;5066386;28;20040;-82
2021/04/27 01:28:39;;;;;;;12.00;6.00;;;;;;;;;;5070514;28;20048;-82
2021/04/27 01:31:06;;;;;;;16.60;6.28;;;;;;;;;;5062826;28;20045;-82
2021/04/27 01:33:32;;;;;;;11.30;5.45;;;;;;;;;;5075742;28;20119;-81
2021/04/27 01:36:01;;;;;;;10.65;5.90;;;;;;;;;;5079994;28;20044;-82
2021/04/27 01:38:27;;;;;;;17.08;5.60;;;;;;;;;;5073011;28;20102;-81
2021/04/27 01:40:54;;;;;;;11.23;4.95;;;;;;;;;;5074106;28;20098;-82
2021/04/27 01:43:21;;;;;;;9.60;4.50;;;;;;;;;;5076132;28;20041;-82
2021/04/27 01:45:50;;;;;;;12.77;5.07;;;;;;;;;;5075355;28;20047;-81
2021/04/27 01:48:16;;;;;;;7.32;4.03;;;;;;;;;;5075862;28;20119;-82
2021/04/27 01:50:43;;;;;;;9.52;4.47;;;;;;;;;;5062180;28;20152;-81
2021/04/27 01:53:12;;;;;;;7.78;4.57;;;;;;;;;;5064314;28;20041;-82
2021/04/27 01:55:38;;;;;;;11.77;4.72;;;;;;;;;;5066990;28;20055;-81
2021/04/27 01:58:04;;;;;;;7.95;4.40;;;;;;;;;;5071023;28;20052;-81
2021/04/27 02:00:31;;;;;;;14.52;4.80;;;;;;;;;;5073852;28;20436;-82
2021/04/27 02:02:58;;;;;;;9.90;4.70;;;;;;;;;;5061383;28;20097;-82
2021/04/27 02:05:24;;;;;;;9.43;4.57;;;;;;;;;;5058250;28;20059;-81
2021/04/27 02:07:50;;;;;;;7.35;4.82;;;;;;;;;;5076053;28;20040;-82
2021/04/27 02:10:17;;;;;;;8.10;5.00;;;;;;;;;;5073253;28;20051;-81
2021/04/27 02:12:46;;;;;;;13.07;4.95;;;;;;;;;;5067176;28;20123;-81
2021/04/27 02:15:14;;;;;;;8.07;4.47;;;;;;;;;;5069835;28;20119;-82
2021/04/27 02:17:40;;;;;;;7.30;3.97;;;;;;;;;;5073638;28;20032;-82
2021/04/27 02:20:06;;;;;;;9.07;4.93;;;;;;;;;;5065248;28;20448;-81
2021/04/27 02:22:33;;;;;;;8.68;4.30;;;;;;;;;;5057072;28;20052;-82
2021/04/27 02:25:00;;;;;;;8.05;4.63;;;;;;;;;;5055448;28;20041;-82
2021/04/27 02:27:26;;;;;;;5.53;3.20;;;;;;;;;;5062513;28;20091;-82
2021/04/27 02:29:54;;;;;;;6.78;4.05;;;;;;;;;;5065843;28;20102;-81
2021/04/27 02:32:21;;;;;;;8.25;3.75;;;;;;;;;;5069582;28;20032;-81
2021/04/27 02:34:48;;;;;;;8.95;4.40;;;;;;;;;;5072877;28;20051;-82
2021/04/27 02:37:15;;;;;;;13.20;4.15;;;;;;;;;;5065234;28;20045;-81
2021/04/27 02:39:41;;;;;;;9.70;4.75;;;;;;;;;;5055676;28;20077;-82
2021/04/27 02:42:08;;;;;;;8.43;4.80;;;;;;;;;;5054618;28;20044;-81
2021/04/27 02:44:35;;;;;;;9.10;4.35;;;;;;;;;;5065259;28;20045;-82
2021/04/27 02:47:01;;;;;;;9.13;4.47;;;;;;;;;;5062675;28;20056;-82
2021/04/27 02:49:27;;;;;;;8.10;4.40;;;;;;;;;;5065642;28;20044;-82
2021/04/27 02:51:54;;;;;;;7.68;4.10;;;;;;;;;;5058689;28;20111;-82
2021/04/27 02:54:20;;;;;;;7.32;4.03;;;;;;;;;;5056821;28;20492;-81
2021/04/27 02:56:46;;;;;;;10.05;4.68;;;;;;;;;;5060379;28;20085;-82
2021/04/27 02:59:12;;;;;;;8.75;5.10;;;;;;;;;;5061891;28;20110;-82
2021/04/27 03:01:39;;;;;;;7.72;5.03;;;;;;;;;;5066713;28;20036;-81
2021/04/27 03:04:07;;;;;;;11.02;4.57;;;;;;;;;;5068999;28;20213;-82
2021/04/27 03:06:34;;;;;;;8.23;5.07;;;;;;;;;;5060801;28;20437;-81
2021/04/27 03:09:00;;;;;;;11.38;5.68;;;;;;;;;;5061187;28;20048;-82
2021/04/27 03:11:27;;;;;;;11.85;5.80;;;;;;;;;;5060011;28;20041;-82
2021/04/27 03:13:53;;;;;;;12.02;6.05;;;;;;;;;;5062729;28;20049;-81
2021/04/27 03:16:21;;;;;;;10.35;5.40;;;;;;;;;;5063338;28;20388;-81
2021/04/27 03:18:47;;;;;;;14.55;6.88;;;;;;;;;;5063963;28;20044;-82
2021/04/27 03:21:13;;;;;;;8.75;5.30;;;;;;;;;;5061902;28;20440;-82
2021/04/27 03:23:39;;;;;;;13.82;6.40;;;;;;;;;;5064798;28;20394;-81
2021/04/27 03:26:06;;;;;;;13.65;5.70;;;;;;;;;;5060717;28;20155;-82
2021/04/27 03:28:32;;;;;;;11.93;6.25;;;;;;;;;;5057364;28;20665;-82
2021/04/27 03:30:58;;;;;;;12.85;5.82;;;;;;;;;;5068377;28;20043;-81
2021/04/27 03:33:25;;;;;;;11.82;6.07;;;;;;;;;;5058366;28;20045;-82
2021/04/27 03:35:52;;;;;;;15.85;6.57;;;;;;;;;;5063973;28;20188;-82
2021/04/27 03:38:18;;;;;;;13.23;6.15;;;;;;;;;;5060105;28;20140;-82
2021/04/27 03:40:45;;;;;;;9.93;6.15;;;;;;;;;;5057102;28;20066;-82
2021/04/27 03:43:11;;;;;;;15.10;6.38;;;;;;;;;;5065577;28;20088;-82
2021/04/27 03:45:37;;;;;;;13.50;7.18;;;;;;;;;;5062445;28;20056;-81
2021/04/27 03:48:05;;;;;;;13.40;6.72;;;;;;;;;;5068520;28;20051;-81
2021/04/27 03:50:32;;;;;;;17.15;6.63;;;;;;;;;;5066482;28;20119;-82
2021/04/27 03:52:58;;;;;;;10.88;5.15;;;;;;;;;;5057215;28;20492;-81
2021/04/27 03:55:24;;;;;;;13.10;6.07;;;;;;;;;;5055330;28;20048;-82
2021/04/27 03:57:51;;;;;;;13.13;5.80;;;;;;;;;;5073199;28;20058;-82
2021/04/27 04:00:18;;;;;;;10.70;5.88;;;;;;;;;;5068530;28;20036;-82
2021/04/27 04:02:44;;;;;;;11.63;5.65;;;;;;;;;;5061482;28;20101;-82
2021/04/27 04:05:12;;;;;;;11.65;6.63;;;;;;;;;;5064621;28;20043;-81
2021/04/27 04:07:38;;;;;;;15.68;6.65;;;;;;;;;;5068235;28;20064;-81
2021/04/27 04:10:05;;;;;;;14.10;5.93;;;;;;;;;;5064350;28;20605;-82
2021/04/27 04:12:32;;;;;;;9.35;5.57;;;;;;;;;;5060976;28;20483;-82
2021/04/27 04:14:58;;;;;;;11.75;5.68;;;;;;;;;;5067810;28;20075;-81
2021/04/27 04:17:25;;;;;;;14.65;6.43;;;;;;;;;;5075307;28;20154;-81
2021/04/27 04:19:51;;;;;;;12.13;6.97;;;;;;;;;;5074323;28;20127;-82
2021/04/27 04:22:17;;;;;;;26.85;7.35;;;;;;;;;;5070494;28;20056;-82
2021/04/27 04:24:44;;;;;;;13.88;7.80;;;;;;;;;;5065486;28;20065;-80
2021/04/27 04:27:10;;;;;;;13.20;6.40;;;;;;;;;;5064215;28;20078;-82
2021/04/27 04:29:37;;;;;;;19.40;7.15;;;;;;;;;;5075684;28;20059;-82
2021/04/27 04:32:03;;;;;;;13.07;7.18;;;;;;;;;;5063824;28;20506;-81
2021/04/27 04:34:29;;;;;;;13.30;7.03;;;;;;;;;;5075307;28;20074;-82
2021/04/27 04:36:56;;;;;;;19.42;7.82;;;;;;;;;;5057543;28;20036;-82
2021/04/27 04:39:22;;;;;;;11.75;7.03;;;;;;;;;;5067865;28;20071;-82
2021/04/27 04:41:48;;;;;;;12.25;7.25;;;;;;;;;;5060542;28;20081;-81
2021/04/27 04:44:15;;;;;;;15.57;7.47;;;;;;;;;;5066783;28;20127;-82
2021/04/27 04:46:41;;;;;;;12.82;7.95;;;;;;;;;;5029660;28;20049;-81
2021/04/27 04:49:07;;;;;;;17.45;7.70;;;;;;;;;;5073242;28;20048;-82
2021/04/27 04:51:33;;;;;;;17.45;7.93;;;;;;;;;;5075108;28;20071;-81
2021/04/27 04:54:00;;;;;;;19.38;8.32;;;;;;;;;;5063185;28;20062;-82
2021/04/27 04:56:26;;;;;;;12.07;6.90;;;;;;;;;;5070331;28;20064;-82
2021/04/27 04:58:52;;;;;;;13.27;7.50;;;;;;;;;;5066698;28;20084;-82
2021/04/27 05:01:19;;;;;;;12.63;7.60;;;;;;;;;;5066560;28;20062;-82
2021/04/27 05:03:46;;;;;;;16.63;8.55;;;;;;;;;;5065029;28;20041;-81
2021/04/27 05:06:16;;;;;;;13.43;7.70;;;;;;;;;;5065067;28;20036;-81
2021/04/27 05:08:46;;;;;;;12.77;7.28;;;;;;;;;;5054916;28;20040;-82
2021/04/27 05:11:12;;;;;;;15.80;8.02;;;;;;;;;;5056288;28;20120;-82
2021/04/27 05:13:39;;;;;;;16.30;8.20;;;;;;;;;;5063873;28;20036;-82
2021/04/27 05:16:05;;;;;;;17.55;8.23;;;;;;;;;;5073444;28;20075;-82
2021/04/27 05:18:33;;;;;;;14.70;8.35;;;;;;;;;;5068410;28;20038;-82
2021/04/27 05:20:59;;;;;;;15.52;7.97;;;;;;;;;;5064231;28;20098;-82
2021/04/27 05:23:26;;;;;;;18.17;8.63;;;;;;;;;;5066636;28;20124;-82
2021/04/27 05:25:52;;;;;;;16.00;7.93;;;;;;;;;;5063540;28;20037;-82
2021/04/27 05:28:18;;;;;;;11.85;7.28;;;;;;;;;;5058850;28;20065;-82
2021/04/27 05:30:45;;;;;;;16.58;8.15;;;;;;;;;;5059976;28;20056;-85
2021/04/27 05:33:11;;;;;;;16.80;7.72;;;;;;;;;;5063656;28;20044;-85
2021/04/27 05:35:37;;;;;;;13.25;7.72;;;;;;;;;;5065498;28;20113;-85
2021/04/27 05:38:03;;;;;;;13.35;7.75;;;;;;;;;;5069139;28;20070;-86
2021/04/27 05:40:30;;;;;;;11.43;7.07;;;;;;;;;;5061310;28;20040;-85
2021/04/27 05:42:56;;;;;;;12.57;7.32;;;;;;;;;;5064835;28;20051;-85
2021/04/27 05:45:22;;;;;;;20.38;6.90;;;;;;;;;;5069134;28;20045;-84
2021/04/27 05:47:49;;;;;;;11.90;6.53;;;;;;;;;;5071031;28;20045;-82
2021/04/27 05:50:15;;;;;;;13.55;7.60;;;;;;;;;;5066937;28;20041;-80
2021/04/27 05:52:42;;;;;;;39.85;28.08;;;;;;;;;;5067696;28;20055;-87
2021/04/27 05:55:08;;;;;;;16.48;10.07;;;;;;;;;;5065185;28;20342;-86
2021/04/27 05:57:35;;;;;;;15.35;7.80;;;;;;;;;;5057034;28;20048;-86
2021/04/27 06:00:01;;;;;;;11.75;6.88;;;;;;;;;;5057043;28;20037;-86
2021/04/27 06:02:27;;;;;;;11.80;7.05;;;;;;;;;;5061595;28;20041;-87
2021/04/27 06:04:54;;;;;;;11.43;7.05;;;;;;;;;;5063465;28;20067;-85
2021/04/27 06:07:20;;;;;;;11.98;6.72;;;;;;;;;;5067114;28;20048;-85
2021/04/27 06:09:47;;;;;;;10.18;7.07;;;;;;;;;;5058834;28;20037;-86
2021/04/27 06:12:13;;;;;;;13.38;6.55;;;;;;;;;;5049888;28;20068;-86
2021/04/27 06:14:39;;;;;;;12.43;6.35;;;;;;;;;;5061683;28;20116;-87
2021/04/27 06:17:06;;;;;;;13.48;5.70;;;;;;;;;;5061050;28;20037;-86
2021/04/27 06:19:33;;;;;;;13.13;6.90;;;;;;;;;;5062643;28;20115;-87
2021/04/27 06:21:59;;;;;;;13.55;6.25;;;;;;;;;;5065203;28;20170;-86
2021/04/27 06:24:26;;;;;;;15.05;7.15;;;;;;;;;;5067495;28;20445;-84
2021/04/27 06:26:52;;;;;;;11.55;7.45;;;;;;;;;;5064784;28;20123;-88
2021/04/27 06:29:18;;;;;;;15.55;7.82;;;;;;;;;;5061912;28;20043;-88
2021/04/27 06:31:45;;;;;;;16.65;7.75;;;;;;;;;;5063219;28;20056;-86
2021/04/27 06:34:11;;;;;;;12.18;6.03;;;;;;;;;;5057650;28;20045;-86
2021/04/27 06:36:37;;;;;;;10.45;5.85;;;;;;;;;;5057088;28;20045;-85
2021/04/27 06:39:04;;;;;;;13.25;5.55;;;;;;;;;;5055076;28;20044;-86
2021/04/27 06:41:32;;;;;;;10.55;5.53;;;;;;;;;;5056131;28;20044;-85
2021/04/27 06:43:59;;;;;;;8.00;5.15;;;;;;;;;;5064554;28;20071;-87
2021/04/27 06:46:26;;;;;;;9.18;5.50;;;;;;;;;;5054786;28;20128;-71
2021/04/27 06:48:52;;;;;;;8.80;5.38;;;;;;;;;;5060503;28;20054;-71
2021/04/27 06:51:19;;;;;;;12.00;5.05;;;;;;;;;;5058065;28;20761;-71
2021/04/27 06:53:46;;;;;;;9.80;4.85;;;;;;;;;;5057272;28;20438;-71
2021/04/27 06:56:13;;;;;;;7.85;4.68;;;;;;;;;;5056046;28;20400;-72
2021/04/27 06:58:39;;;;;;;11.10;4.50;;;;;;;;;;5061773;28;20492;-85
2021/04/27 07:01:05;;;;;;;16.05;5.45;;;;;;;;;;5059148;28;20102;-84
2021/04/27 07:03:32;;;;;;;9.70;4.93;;;;;;;;;;5055810;28;20047;-85
2021/04/27 07:05:59;;;;;;;15.30;5.05;;;;;;;;;;5061438;28;20032;-86
2021/04/27 07:08:27;;;;;;;8.85;5.20;;;;;;;;;;5053626;28;20072;-85
2021/04/27 07:10:56;;;;;;;7.75;4.35;;;;;;;;;;5060263;28;20043;-85
2021/04/27 07:13:23;;;;;;;9.40;4.47;;;;;;;;;;5058812;28;20045;-85
2021/04/27 07:15:49;;;;;;;9.25;4.63;;;;;;;;;;5057512;28;20041;-86
2021/04/27 07:18:15;;;;;;;9.27;4.28;;;;;;;;;;5058712;28;20165;-85
2021/04/27 07:20:43;;;;;;;7.40;4.05;;;;;;;;;;5065209;28;20051;-86
2021/04/27 07:23:09;;;;;;;8.27;5.00;;;;;;;;;;5065606;28;20086;-85
2021/04/27 07:25:36;;;;;;;12.18;4.97;;;;;;;;;;5067798;28;20567;-84
2021/04/27 07:28:04;;;;;;;9.25;3.80;;;;;;;;;;5052981;28;20049;-84
2021/04/27 07:30:31;;;;;;;7.45;4.30;;;;;;;;;;5058509;28;20067;-83
2021/04/27 07:32:58;;;;;;;8.07;4.13;;;;;;;;;;5060560;28;20448;-85
2021/04/27 07:35:24;;;;;;;9.13;3.70;;;;;;;;;;5059623;28;20045;-85
2021/04/27 07:37:50;;;;;;;7.53;4.15;;;;;;;;;;5064661;28;20456;-82
2021/04/27 07:40:17;;;;;;;9.55;4.35;;;;;;;;;;5060158;28;20036;-84
2021/04/27 07:42:43;;;;;;;9.80;3.50;;;;;;;;;;5064602;28;20036;-82
2021/04/27 07:45:10;;;;;;;11.32;5.32;;;;;;;;;;5058233;28;20537;-84
2021/04/27 07:47:36;;;;;;;6.15;3.78;;;;;;;;;;5053501;28;20052;-84
2021/04/27 07:50:03;;;;;;;6.97;3.53;;;;;;;;;;5063650;28;20064;-84
2021/04/27 07:52:31;;;;;;;9.90;3.78;;;;;;;;;;5064296;28;20591;-84
2021/04/27 07:54:57;;;;;;;8.55;3.80;;;;;;;;;;5055401;28;20040;-84
2021/04/27 07:57:24;;;;;;;9.13;3.75;;;;;;;;;;5058279;28;20126;-84
2021/04/27 07:59:50;;;;;;;6.20;3.53;;;;;;;;;;5062008;28;20116;-86
2021/04/27 08:02:17;;;;;;;6.93;3.22;;;;;;;;;;5069425;28;20085;-84
2021/04/27 08:04:45;;;;;;;7.47;3.47;;;;;;;;;;5070087;28;20093;-84
2021/04/27 08:07:12;;;;;;;7.38;3.40;;;;;;;;;;5070514;28;20041;-84
2021/04/27 08:09:39;;;;;;;8.88;3.47;;;;;;;;;;5069920;28;20059;-78
2021/04/27 08:12:05;;;;;;;9.88;3.30;;;;;;;;;;5069569;28;20084;-78
2021/04/27 08:14:32;;;;;;;6.65;2.95;;;;;;;;;;5070733;28;20044;-79
2021/04/27 08:16:59;;;;;;;10.02;3.60;;;;;;;;;;5063161;28;20033;-80
2021/04/27 08:19:25;;;;;;;7.60;3.72;;;;;;;;;;5055059;28;20071;-81
2021/04/27 08:21:51;;;;;;;6.53;2.83;;;;;;;;;;5055644;28;20123;-68
2021/04/27 08:24:17;;;;;;;7.47;3.30;;;;;;;;;;5055506;28;20123;-68
2021/04/27 08:26:44;;;;;;;8.10;3.40;;;;;;;;;;5056078;28;20068;-68
2021/04/27 08:29:11;;;;;;;9.40;3.60;;;;;;;;;;5060753;28;20086;-68
2021/04/27 08:31:37;;;;;;;8.10;3.33;;;;;;;;;;5057161;28;20078;-75
2021/04/27 08:34:03;;;;;;;8.52;2.80;;;;;;;;;;5052163;28;20488;-68
2021/04/27 08:36:30;;;;;;;7.00;3.20;;;;;;;;;;5061897;28;20081;-68
2021/04/27 08:38:56;;;;;;;7.30;3.30;;;;;;;;;;5058705;28;20056;-68
2021/04/27 08:41:23;;;;;;;7.03;3.10;;;;;;;;;;5062786;28;20068;-68
2021/04/27 08:43:50;;;;;;;5.88;3.13;;;;;;;;;;5063086;28;20044;-68
2021/04/27 08:46:16;;;;;;;8.43;3.17;;;;;;;;;;5061907;28;20083;-68
2021/04/27 08:48:43;;;;;;;10.38;2.92;;;;;;;;;;5060066;28;20135;-68
2021/04/27 08:51:12;;;;;;;9.52;2.80;;;;;;;;;;5058455;28;20036;-68
2021/04/27 08:53:38;;;;;;;7.40;3.00;;;;;;;;;;5058922;28;20041;-68
2021/04/27 08:56:05;;;;;;;6.82;2.80;;;;;;;;;;5058106;28;20075;-68
2021/04/27 08:58:31;;;;;;;6.43;3.17;;;;;;;;;;5054208;28;20045;-68
2021/04/27 09:00:57;;;;;;;10.90;3.72;;;;;;;;;;5050343;28;20052;-68
2021/04/27 09:03:23;;;;;;;6.53;2.90;;;;;;;;;;5054925;28;20093;-68
2021/04/27 09:05:50;;;;;;;8.43;3.20;;;;;;;;;;5054122;28;20052;-68
2021/04/27 09:08:16;;;;;;;6.55;3.15;;;;;;;;;;5052000;28;20500;-68
2021/04/27 09:10:46;;;;;;;7.72;2.80;;;;;;;;;;5060575;28;20127;-68
2021/04/27 09:13:14;;;;;;;8.55;2.72;;;;;;;;;;5057234;28;20134;-68
2021/04/27 09:15:47;;;;;;;7.95;2.88;;;;;;;;;;5063846;28;20095;-68
2021/04/27 09:18:23;;;;;;;7.17;2.87;;;;;;;;;;5061157;28;20045;-68
2021/04/27 09:20:51;;;;;;;6.95;2.50;;;;;;;;;;5067686;28;20324;-68
2021/04/27 09:23:17;;;;;;;6.85;2.55;;;;;;;;;;5060835;28;20062;-68
2021/04/27 09:25:47;;;;;;;10.80;3.47;;;;;;;;;;5061429;28;20111;-68
2021/04/27 09:28:31;;;;;;;5.43;2.88;;;;;;;;;;5065244;28;20063;-68
2021/04/27 09:30:59;;;;;;;9.18;2.85;;;;;;;;;;5060215;28;20068;-68
2021/04/27 09:33:27;;;;;;;6.80;3.22;;;;;;;;;;5057384;28;20230;-68
2021/04/27 09:35:53;;;;;;;7.07;2.60;;;;;;;;;;5059902;28;20040;-68
2021/04/27 09:38:22;;;;;;;7.13;2.95;;;;;;;;;;5067026;28;20041;-68
2021/04/27 09:40:48;;;;;;;6.18;2.63;;;;;;;;;;5058872;28;20044;-68
2021/04/27 09:43:16;;;;;;;6.93;2.67;;;;;;;;;;5059076;28;20468;-68
2021/04/27 09:45:43;;;;;;;6.93;2.78;;;;;;;;;;5065427;28;20046;-69
2021/04/27 09:48:10;;;;;;;10.32;3.30;;;;;;;;;;5060103;28;20037;-68
2021/04/27 09:50:37;;;;;;;6.55;3.00;;;;;;;;;;5062753;28;20167;-79
2021/04/27 09:53:04;;;;;;;5.40;3.08;;;;;;;;;;5064941;28;20059;-68
2021/04/27 09:55:33;;;;;;;8.00;2.95;;;;;;;;;;5065760;28;20048;-68
2021/04/27 09:58:00;;;;;;;11.68;3.50;;;;;;;;;;5061582;28;20116;-68
2021/04/27 10:00:34;;;;;;;8.40;2.95;;;;;;;;;;5054144;28;20054;-68
2021/04/27 10:03:02;;;;;;;6.18;3.33;;;;;;;;;;5065707;28;20043;-68
2021/04/27 10:05:29;;;;;;;12.05;3.15;;;;;;;;;;5059028;28;20048;-68
2021/04/27 10:07:57;;;;;;;9.43;3.25;;;;;;;;;;5060290;28;20429;-68
2021/04/27 10:10:24;;;;;;;7.15;2.70;;;;;;;;;;5057381;28;20060;-68
2021/04/27 10:12:52;;;;;;;7.07;3.08;;;;;;;;;;5060689;28;20094;-68
2021/04/27 10:15:18;;;;;;;6.25;3.25;;;;;;;;;;5064894;28;20133;-68
2021/04/27 10:17:45;;;;;;;8.73;4.30;;;;;;;;;;5067660;28;20119;-68
2021/04/27 10:20:13;;;;;;;6.88;2.70;;;;;;;;;;5062462;28;20033;-68
2021/04/27 10:22:41;;;;;;;4.32;2.60;;;;;;;;;;5065235;28;20066;-68
2021/04/27 10:25:11;;;;;;;5.55;2.88;;;;;;;;;;5067352;28;20037;-68
2021/04/27 10:27:38;;;;;;;6.22;2.50;;;;;;;;;;5066441;28;20438;-69
2021/04/27 10:30:29;;;;;;;11.07;2.65;;;;;;;;;;5062087;28;20040;-69
2021/04/27 10:33:11;;;;;;;6.75;2.90;;;;;;;;;;5063529;28;20070;-69
2021/04/27 10:35:40;;;;;;;5.53;2.33;;;;;;;;;;5059967;28;20053;-69
2021/04/27 10:38:07;;;;;;;4.95;2.88;;;;;;;;;;5063147;28;20098;-69
2021/04/27 10:40:44;;;;;;;7.18;2.67;;;;;;;;;;5058962;28;20102;-69
2021/04/27 10:43:25;;;;;;;5.35;2.58;;;;;;;;;;5070693;28;20476;-70
2021/04/27 10:45:51;;;;;;;5.78;2.60;;;;;;;;;;5070728;28;20582;-69
2021/04/27 10:48:35;;;;;;;5.60;2.60;;;;;;;;;;5060680;28;20092;-69
2021/04/27 10:51:20;;;;;;;10.40;2.67;;;;;;;;;;5069492;28;20033;-69
2021/04/27 10:54:05;;;;;;;5.47;2.58;;;;;;;;;;5068586;28;20102;-69
2021/04/27 10:56:36;;;;;;;5.07;2.28;;;;;;;;;;5058592;28;20450;-68
2021/04/27 10:59:04;;;;;;;6.45;2.17;;;;;;;;;;5056299;28;20057;-69
2021/04/27 11:01:31;;;;;;;5.28;2.15;;;;;;;;;;5056844;28;20124;-69
2021/04/27 11:03:59;;;;;;;5.07;2.38;;;;;;;;;;5058817;28;20089;-69
2021/04/27 11:06:26;;;;;;;5.53;2.38;;;;;;;;;;5066602;28;20123;-68
2021/04/27 11:08:53;;;;;;;6.05;2.25;;;;;;;;;;5064262;28;20033;-69
2021/04/27 11:11:30;;;;;;;3.92;1.77;;;;;;;;;;5059809;28;20102;-69
2021/04/27 11:14:18;;;;;;;4.90;2.58;;;;;;;;;;5058788;28;20149;-69
2021/04/27 11:16:52;;;;;;;6.38;1.90;;;;;;;;;;5054987;28;20106;-69
2021/04/27 11:19:19;;;;;;;5.82;2.10;;;;;;;;;;5061761;28;20033;-69
2021/04/27 11:21:46;;;;;;;5.47;2.20;;;;;;;;;;5063841;28;20161;-69
2021/04/27 11:24:33;;;;;;;5.82;2.20;;;;;;;;;;5056477;28;20396;-70
2021/04/27 11:27:01;;;;;;;9.52;2.65;;;;;;;;;;5068241;28;20548;-70
2021/04/27 11:29:29;;;;;;;4.63;2.08;;;;;;;;;;5061429;28;20036;-69
2021/04/27 11:32:00;;;;;;;5.10;2.47;;;;;;;;;;5070563;28;20167;-89
2021/04/27 11:34:27;;;;;;;5.45;2.05;;;;;;;;;;5073298;28;20037;-69
2021/04/27 11:36:54;;;;;;;5.28;2.42;;;;;;;;;;5080011;28;20036;-69
2021/04/27 11:39:23;;;;;;;6.35;2.03;;;;;;;;;;5073178;28;20040;-69
2021/04/27 11:41:51;;;;;;;4.78;1.88;;;;;;;;;;5074162;28;20070;-69
2021/04/27 11:44:18;;;;;;;4.18;1.73;;;;;;;;;;5069600;28;20096;-69
2021/04/27 11:46:55;;;;;;;6.35;2.10;;;;;;;;;;5066777;28;20147;-69
2021/04/27 11:49:22;;;;;;;5.45;1.80;;;;;;;;;;5063230;28;20044;-69
2021/04/27 11:51:48;;;;;;;5.43;2.28;;;;;;;;;;5068968;28;20033;-69
2021/04/27 11:54:19;;;;;;;5.28;2.08;;;;;;;;;;5061433;28;20399;-69
2021/04/27 11:56:46;;;;;;;6.32;2.47;;;;;;;;;;5066028;28;20048;-69
2021/04/27 11:59:12;;;;;;;7.85;2.92;;;;;;;;;;5059705;28;20103;-68
2021/04/27 12:01:39;;;;;;;7.03;2.10;;;;;;;;;;5068508;28;20044;-69
2021/04/27 12:04:05;;;;;;;6.80;2.15;;;;;;;;;;5059635;28;20459;-69
2021/04/27 12:06:32;;;;;;;3.80;1.90;;;;;;;;;;5059675;28;20508;-69
2021/04/27 12:09:01;;;;;;;4.55;2.00;;;;;;;;;;5057514;28;20118;-69
2021/04/27 12:11:29;;;;;;;7.43;2.50;;;;;;;;;;5063182;28;20052;-69
2021/04/27 12:14:00;;;;;;;3.85;2.05;;;;;;;;;;5074494;28;20064;-69
2021/04/27 12:16:28;;;;;;;5.78;2.28;;;;;;;;;;5064803;28;20048;-69
2021/04/27 12:19:00;;;;;;;5.45;2.50;;;;;;;;;;5063210;28;20724;-69
2021/04/27 12:21:28;;;;;;;5.78;2.10;;;;;;;;;;5072149;28;20066;-69
2021/04/27 12:24:08;;;;;;;4.38;2.03;;;;;;;;;;5061044;28;20049;-69
2021/04/27 12:26:35;;;;;;;3.83;2.03;;;;;;;;;;5065254;28;20032;-69
2021/04/27 12:29:02;;;;;;;4.28;2.15;;;;;;;;;;5069668;28;20069;-69
2021/04/27 12:31:29;;;;;;;6.82;1.88;;;;;;;;;;5066451;28;20045;-69
2021/04/27 12:33:56;;;;;;;4.95;2.22;;;;;;;;;;5073059;28;20088;-69
2021/04/27 12:36:42;;;;;;;4.18;2.10;;;;;;;;;;5075087;28;20051;-69
2021/04/27 12:39:26;;;;;;;4.80;2.03;;;;;;;;;;5073241;28;20036;-69
2021/04/27 12:41:52;;;;;;;8.13;1.92;;;;;;;;;;5081786;28;20037;-69
2021/04/27 12:44:25;;;;;;;6.43;2.53;;;;;;;;;;5079824;28;20074;-69
2021/04/27 12:46:51;;;;;;;5.10;2.63;;;;;;;;;;5079413;28;20521;-69
2021/04/27 12:49:23;;;;;;;5.45;2.30;;;;;;;;;;5071990;28;20055;-69
2021/04/27 12:51:54;;;;;;;4.38;2.20;;;;;;;;;;5063251;28;20075;-69
2021/04/27 12:54:24;;;;;;;7.68;2.20;;;;;;;;;;5064383;28;20052;-69
2021/04/27 12:57:10;;;;;;;9.63;2.50;;;;;;;;;;5052494;28;20456;-69
2021/04/27 12:59:38;;;;;;;4.47;2.42;;;;;;;;;;5058976;28;20071;-69
2021/04/27 13:02:10;;;;;;;6.15;2.20;;;;;;;;;;5037773;28;20107;-69
2021/04/27 13:04:39;;;;;;;7.05;2.38;;;;;;;;;;5061192;28;20507;-69
2021/04/27 13:07:05;;;;;;;7.90;2.03;;;;;;;;;;5063235;28;20139;-68
2021/04/27 13:09:32;;;;;;;6.07;2.35;;;;;;;;;;5057154;28;20064;-69
2021/04/27 13:12:00;;;;;;;5.20;2.15;;;;;;;;;;5056544;28;20041;-69
2021/04/27 13:14:30;;;;;;;5.95;2.10;;;;;;;;;;5063125;28;20056;-69
2021/04/27 13:16:58;;;;;;;5.55;2.10;;;;;;;;;;5061989;28;20045;-69
2021/04/27 13:19:25;;;;;;;6.47;2.67;;;;;;;;;;5055462;28;20147;-69
2021/04/27 13:22:06;;;;;;;6.63;2.40;;;;;;;;;;5058424;28;20481;-69
2021/04/27 13:24:40;;;;;;;10.40;2.08;;;;;;;;;;5055159;28;20860;-69
2021/04/27 13:27:08;;;;;;;7.13;2.42;;;;;;;;;;5039760;28;20068;-69
2021/04/27 13:29:36;;;;;;;6.45;2.20;;;;;;;;;;5066876;28;20472;-69
2021/04/27 13:32:20;;;;;;;5.55;1.88;;;;;;;;;;5059219;28;20049;-66
2021/04/27 13:34:47;;;;;;;6.50;2.17;;;;;;;;;;5054341;28;20131;-67
2021/04/27 13:37:14;;;;;;;8.52;2.40;;;;;;;;;;5058567;28;20069;-67
2021/04/27 13:39:41;;;;;;;5.38;1.90;;;;;;;;;;5053394;28;20448;-66
2021/04/27 13:42:07;;;;;;;7.22;2.15;;;;;;;;;;5048673;28;20396;-67
2021/04/27 13:44:34;;;;;;;9.23;2.08;;;;;;;;;;5049795;28;20048;-67
2021/04/27 13:47:02;;;;;;;6.85;2.05;;;;;;;;;;5049635;28;20044;-67
2021/04/27 13:49:28;;;;;;;4.55;2.42;;;;;;;;;;5049039;28;20049;-66
2021/04/27 13:51:54;;;;;;;6.18;1.90;;;;;;;;;;5049467;28;20049;-67
2021/04/27 13:54:21;;;;;;;3.95;2.17;;;;;;;;;;5050064;28;20500;-67
2021/04/27 13:56:47;;;;;;;5.32;1.90;;;;;;;;;;5052259;28;20476;-67
2021/04/27 13:59:13;;;;;;;10.77;2.20;;;;;;;;;;5066659;28;20471;-67
2021/04/27 14:01:40;;;;;;;5.18;2.28;;;;;;;;;;5073032;28;20045;-67
2021/04/27 14:04:07;;;;;;;6.65;2.13;;;;;;;;;;5072092;28;20424;-67
2021/04/27 14:06:34;;;;;;;5.75;2.45;;;;;;;;;;5073629;28;20097;-67
2021/04/27 14:09:00;;;;;;;5.57;2.30;;;;;;;;;;5069910;28;20048;-66
2021/04/27 14:11:27;;;;;;;6.47;2.10;;;;;;;;;;5068246;28;20150;-68
2021/04/27 14:13:53;;;;;;;4.53;2.10;;;;;;;;;;5070897;28;20048;-68
2021/04/27 14:16:19;;;;;;;5.53;2.40;;;;;;;;;;5069081;28;20045;-68
2021/04/27 14:18:46;;;;;;;4.88;2.13;;;;;;;;;;5071930;28;20097;-69
2021/04/27 14:21:13;;;;;;;3.72;2.00;;;;;;;;;;5072645;28;20052;-68
2021/04/27 14:23:40;;;;;;;3.80;2.20;;;;;;;;;;5072273;28;20040;-69
2021/04/27 14:26:06;;;;;;;5.30;2.40;;;;;;;;;;5071906;28;20071;-70
2021/04/27 14:28:33;;;;;;;6.95;2.22;;;;;;;;;;5072706;28;20049;-68
2021/04/27 14:30:59;;;;;;;7.07;2.50;;;;;;;;;;5068330;28;20040;-69
2021/04/27 14:33:26;;;;;;;9.50;3.05;;;;;;;;;;5072343;28;20122;-68
2021/04/27 14:35:52;;;;;;;6.07;2.22;;;;;;;;;;5071252;28;20096;-68
2021/04/27 14:38:22;;;;;;;3.83;2.33;;;;;;;;;;5062328;28;20374;-67
2021/04/27 14:40:49;;;;;;;4.53;2.60;;;;;;;;;;5064376;28;20426;-68